Terminal Aerodrome Forecast
Issued by NWS

Home | Current Version | Previous Version | Text Only | Print | Product List | Glossary On
Versions: 1 2 3 4 5 6 7 8 9 10 11 12 13 14 15 16 17 18 19 20 21 22 23 24 25 26
000
FTUS43 KLOT 281626 AAA
TAFDPA
TAF AMD
KDPA 281626Z 2816/2912 18007KT P6SM VCSH SCT035 BKN060
      TEMPO 2820/2824 2SM -TSRA BKN040CB
     FM290100 04008KT P6SM SCT030 BKN050=

USA.gov is the U.S. government's official web portal to all federal, state and local government web resources and services.